sensor_id;sensor_type;location;lat;lon;timestamp;temperature;humidity
45765;DHT22;31474;45.332;10.230;2023-04-27T00:01:48;13.70;97.80
45765;DHT22;31474;45.332;10.230;2023-04-27T00:04:14;13.60;98.20
45765;DHT22;31474;45.332;10.230;2023-04-27T00:06:41;13.60;98.10
45765;DHT22;31474;45.332;10.230;2023-04-27T00:09:07;13.70;98.10
45765;DHT22;31474;45.332;10.230;2023-04-27T00:11:32;13.60;98.20
45765;DHT22;31474;45.332;10.230;2023-04-27T00:13:58;13.70;97.70
45765;DHT22;31474;45.332;10.230;2023-04-27T00:16:24;13.80;97.70
45765;DHT22;31474;45.332;10.230;2023-04-27T00:18:49;13.80;97.40
45765;DHT22;31474;45.332;10.230;2023-04-27T00:21:16;13.90;97.40
45765;DHT22;31474;45.332;10.230;2023-04-27T00:23:42;13.80;97.60
45765;DHT22;31474;45.332;10.230;2023-04-27T00:26:08;13.80;97.80
45765;DHT22;31474;45.332;10.230;2023-04-27T00:28:33;13.80;97.60
45765;DHT22;31474;45.332;10.230;2023-04-27T00:30:59;13.80;97.50
45765;DHT22;31474;45.332;10.230;2023-04-27T00:33:28;13.90;97.30
45765;DHT22;31474;45.332;10.230;2023-04-27T00:35:53;13.90;97.30
45765;DHT22;31474;45.332;10.230;2023-04-27T00:38:19;13.80;97.40
45765;DHT22;31474;45.332;10.230;2023-04-27T00:40:45;13.80;97.60
45765;DHT22;31474;45.332;10.230;2023-04-27T00:43:11;13.70;97.50
45765;DHT22;31474;45.332;10.230;2023-04-27T00:45:46;13.60;97.80
45765;DHT22;31474;45.332;10.230;2023-04-27T00:48:12;13.60;97.90
45765;DHT22;31474;45.332;10.230;2023-04-27T00:50:38;13.60;97.80
45765;DHT22;31474;45.332;10.230;2023-04-27T00:53:04;13.70;97.60
45765;DHT22;31474;45.332;10.230;2023-04-27T00:55:30;13.80;97.50
45765;DHT22;31474;45.332;10.230;2023-04-27T00:57:56;13.90;97.40
45765;DHT22;31474;45.332;10.230;2023-04-27T01:00:22;13.90;97.50
45765;DHT22;31474;45.332;10.230;2023-04-27T01:02:48;13.90;97.40
45765;DHT22;31474;45.332;10.230;2023-04-27T01:05:15;13.90;97.30
45765;DHT22;31474;45.332;10.230;2023-04-27T01:07:41;13.80;97.50
45765;DHT22;31474;45.332;10.230;2023-04-27T01:10:07;13.80;97.60
45765;DHT22;31474;45.332;10.230;2023-04-27T01:12:33;13.70;97.70
45765;DHT22;31474;45.332;10.230;2023-04-27T01:14:59;13.70;97.60
45765;DHT22;31474;45.332;10.230;2023-04-27T01:17:24;13.70;97.60
45765;DHT22;31474;45.332;10.230;2023-04-27T01:19:50;13.80;97.50
45765;DHT22;31474;45.332;10.230;2023-04-27T01:22:17;13.80;97.40
45765;DHT22;31474;45.332;10.230;2023-04-27T01:24:42;13.80;97.30
45765;DHT22;31474;45.332;10.230;2023-04-27T01:27:08;13.80;97.60
45765;DHT22;31474;45.332;10.230;2023-04-27T01:29:34;13.70;97.40
45765;DHT22;31474;45.332;10.230;2023-04-27T01:32:00;13.60;97.40
45765;DHT22;31474;45.332;10.230;2023-04-27T01:34:25;13.60;97.30
45765;DHT22;31474;45.332;10.230;2023-04-27T01:36:51;13.70;97.30
45765;DHT22;31474;45.332;10.230;2023-04-27T01:39:17;13.70;97.20
45765;DHT22;31474;45.332;10.230;2023-04-27T01:41:42;13.70;97.10
45765;DHT22;31474;45.332;10.230;2023-04-27T01:44:08;13.70;97.00
45765;DHT22;31474;45.332;10.230;2023-04-27T01:46:33;13.70;96.90
45765;DHT22;31474;45.332;10.230;2023-04-27T01:48:59;13.80;96.90
45765;DHT22;31474;45.332;10.230;2023-04-27T01:51:25;13.80;96.60
45765;DHT22;31474;45.332;10.230;2023-04-27T01:53:52;13.80;96.60
45765;DHT22;31474;45.332;10.230;2023-04-27T01:56:17;13.80;96.40
45765;DHT22;31474;45.332;10.230;2023-04-27T01:58:43;13.90;96.30
45765;DHT22;31474;45.332;10.230;2023-04-27T02:01:08;13.90;96.30
45765;DHT22;31474;45.332;10.230;2023-04-27T02:03:34;13.90;96.20
45765;DHT22;31474;45.332;10.230;2023-04-27T02:06:00;13.90;96.40
45765;DHT22;31474;45.332;10.230;2023-04-27T02:08:26;13.80;96.40
45765;DHT22;31474;45.332;10.230;2023-04-27T02:10:51;13.80;96.60
45765;DHT22;31474;45.332;10.230;2023-04-27T02:13:17;13.80;96.60
45765;DHT22;31474;45.332;10.230;2023-04-27T02:15:42;13.80;96.60
45765;DHT22;31474;45.332;10.230;2023-04-27T02:18:08;13.80;96.60
45765;DHT22;31474;45.332;10.230;2023-04-27T02:20:34;13.80;96.70
45765;DHT22;31474;45.332;10.230;2023-04-27T02:22:59;13.90;96.70
45765;DHT22;31474;45.332;10.230;2023-04-27T02:25:27;13.80;96.70
45765;DHT22;31474;45.332;10.230;2023-04-27T02:27:52;13.80;96.80
45765;DHT22;31474;45.332;10.230;2023-04-27T02:30:18;13.70;97.30
45765;DHT22;31474;45.332;10.230;2023-04-27T02:32:43;13.80;97.40
45765;DHT22;31474;45.332;10.230;2023-04-27T02:35:10;13.70;97.20
45765;DHT22;31474;45.332;10.230;2023-04-27T02:37:36;13.70;97.20
45765;DHT22;31474;45.332;10.230;2023-04-27T02:40:02;13.70;97.10
45765;DHT22;31474;45.332;10.230;2023-04-27T02:42:29;13.60;97.10
45765;DHT22;31474;45.332;10.230;2023-04-27T02:44:54;13.60;97.40
45765;DHT22;31474;45.332;10.230;2023-04-27T02:47:20;13.50;97.40
45765;DHT22;31474;45.332;10.230;2023-04-27T02:49:45;13.50;97.70
45765;DHT22;31474;45.332;10.230;2023-04-27T02:52:11;13.40;97.60
45765;DHT22;31474;45.332;10.230;2023-04-27T02:54:37;13.40;97.60
45765;DHT22;31474;45.332;10.230;2023-04-27T02:57:03;13.40;97.60
45765;DHT22;31474;45.332;10.230;2023-04-27T02:59:29;13.30;97.60
45765;DHT22;31474;45.332;10.230;2023-04-27T03:01:55;13.30;97.60
45765;DHT22;31474;45.332;10.230;2023-04-27T03:04:20;13.30;97.70
45765;DHT22;31474;45.332;10.230;2023-04-27T03:06:46;13.30;97.90
45765;DHT22;31474;45.332;10.230;2023-04-27T03:09:11;13.30;97.80
45765;DHT22;31474;45.332;10.230;2023-04-27T03:11:37;13.30;97.70
45765;DHT22;31474;45.332;10.230;2023-04-27T03:14:03;13.40;97.70
45765;DHT22;31474;45.332;10.230;2023-04-27T03:16:33;13.40;97.50
45765;DHT22;31474;45.332;10.230;2023-04-27T03:18:59;13.40;97.40
45765;DHT22;31474;45.332;10.230;2023-04-27T03:21:25;13.40;97.30
45765;DHT22;31474;45.332;10.230;2023-04-27T03:23:51;13.30;97.30
45765;DHT22;31474;45.332;10.230;2023-04-27T03:26:17;13.30;97.20
45765;DHT22;31474;45.332;10.230;2023-04-27T03:28:43;13.30;97.10
45765;DHT22;31474;45.332;10.230;2023-04-27T03:31:10;13.30;97.00
45765;DHT22;31474;45.332;10.230;2023-04-27T03:33:36;13.30;97.10
45765;DHT22;31474;45.332;10.230;2023-04-27T03:36:03;13.30;97.10
45765;DHT22;31474;45.332;10.230;2023-04-27T03:38:29;13.20;97.00
45765;DHT22;31474;45.332;10.230;2023-04-27T03:40:55;13.10;97.50
45765;DHT22;31474;45.332;10.230;2023-04-27T03:43:21;13.10;97.80
45765;DHT22;31474;45.332;10.230;2023-04-27T03:45:47;13.00;97.90
45765;DHT22;31474;45.332;10.230;2023-04-27T03:48:14;13.00;97.80
45765;DHT22;31474;45.332;10.230;2023-04-27T03:50:40;13.10;97.60
45765;DHT22;31474;45.332;10.230;2023-04-27T03:53:05;13.00;97.40
45765;DHT22;31474;45.332;10.230;2023-04-27T03:55:31;13.00;97.30
45765;DHT22;31474;45.332;10.230;2023-04-27T03:57:57;13.00;96.70
45765;DHT22;31474;45.332;10.230;2023-04-27T04:00:22;13.00;96.70
45765;DHT22;31474;45.332;10.230;2023-04-27T04:02:48;13.00;96.80
45765;DHT22;31474;45.332;10.230;2023-04-27T04:05:14;13.00;96.60
45765;DHT22;31474;45.332;10.230;2023-04-27T04:07:40;13.00;96.50
45765;DHT22;31474;45.332;10.230;2023-04-27T04:10:06;13.00;96.50
45765;DHT22;31474;45.332;10.230;2023-04-27T04:12:32;12.90;96.50
45765;DHT22;31474;45.332;10.230;2023-04-27T04:14:58;12.90;96.60
45765;DHT22;31474;45.332;10.230;2023-04-27T04:17:24;12.80;96.60
45765;DHT22;31474;45.332;10.230;2023-04-27T04:19:50;12.90;96.80
45765;DHT22;31474;45.332;10.230;2023-04-27T04:22:15;12.80;96.80
45765;DHT22;31474;45.332;10.230;2023-04-27T04:24:41;12.80;96.90
45765;DHT22;31474;45.332;10.230;2023-04-27T04:27:07;12.70;97.10
45765;DHT22;31474;45.332;10.230;2023-04-27T04:29:33;12.80;96.90
45765;DHT22;31474;45.332;10.230;2023-04-27T04:31:59;12.80;96.90
45765;DHT22;31474;45.332;10.230;2023-04-27T04:34:24;12.80;96.80
45765;DHT22;31474;45.332;10.230;2023-04-27T04:36:50;12.70;96.80
45765;DHT22;31474;45.332;10.230;2023-04-27T04:39:17;12.70;96.70
45765;DHT22;31474;45.332;10.230;2023-04-27T04:41:45;12.70;96.70
45765;DHT22;31474;45.332;10.230;2023-04-27T04:44:11;12.70;96.80
45765;DHT22;31474;45.332;10.230;2023-04-27T04:46:36;12.70;96.80
45765;DHT22;31474;45.332;10.230;2023-04-27T04:49:03;12.80;96.80
45765;DHT22;31474;45.332;10.230;2023-04-27T04:51:29;12.80;96.70
45765;DHT22;31474;45.332;10.230;2023-04-27T04:53:55;12.80;96.70
45765;DHT22;31474;45.332;10.230;2023-04-27T04:56:20;12.80;96.60
45765;DHT22;31474;45.332;10.230;2023-04-27T04:58:46;12.80;96.60
45765;DHT22;31474;45.332;10.230;2023-04-27T05:01:12;12.90;96.70
45765;DHT22;31474;45.332;10.230;2023-04-27T05:03:37;12.90;96.80
45765;DHT22;31474;45.332;10.230;2023-04-27T05:06:03;13.00;96.60
45765;DHT22;31474;45.332;10.230;2023-04-27T05:08:29;13.10;96.40
45765;DHT22;31474;45.332;10.230;2023-04-27T05:10:55;13.20;96.50
45765;DHT22;31474;45.332;10.230;2023-04-27T05:13:20;13.30;96.20
45765;DHT22;31474;45.332;10.230;2023-04-27T05:15:46;13.40;96.10
45765;DHT22;31474;45.332;10.230;2023-04-27T05:18:12;13.40;96.10
45765;DHT22;31474;45.332;10.230;2023-04-27T05:20:38;13.50;96.10
45765;DHT22;31474;45.332;10.230;2023-04-27T05:23:04;13.60;95.90
45765;DHT22;31474;45.332;10.230;2023-04-27T05:25:34;13.80;95.80
45765;DHT22;31474;45.332;10.230;2023-04-27T05:28:09;14.00;96.20
45765;DHT22;31474;45.332;10.230;2023-04-27T05:30:35;14.20;95.90
45765;DHT22;31474;45.332;10.230;2023-04-27T05:33:02;14.30;95.70
45765;DHT22;31474;45.332;10.230;2023-04-27T05:35:28;14.40;95.20
45765;DHT22;31474;45.332;10.230;2023-04-27T05:37:54;14.50;95.30
45765;DHT22;31474;45.332;10.230;2023-04-27T05:40:20;14.50;95.30
45765;DHT22;31474;45.332;10.230;2023-04-27T05:42:46;14.60;95.30
45765;DHT22;31474;45.332;10.230;2023-04-27T05:45:12;14.90;95.60
45765;DHT22;31474;45.332;10.230;2023-04-27T05:47:38;15.10;95.40
45765;DHT22;31474;45.332;10.230;2023-04-27T05:50:04;15.30;95.00
45765;DHT22;31474;45.332;10.230;2023-04-27T05:52:30;15.30;94.80
45765;DHT22;31474;45.332;10.230;2023-04-27T05:54:56;15.30;94.90
45765;DHT22;31474;45.332;10.230;2023-04-27T05:57:25;15.30;94.90
45765;DHT22;31474;45.332;10.230;2023-04-27T05:59:51;15.40;95.10
45765;DHT22;31474;45.332;10.230;2023-04-27T06:02:17;15.50;95.00
45765;DHT22;31474;45.332;10.230;2023-04-27T06:04:43;15.70;95.30
45765;DHT22;31474;45.332;10.230;2023-04-27T06:07:09;15.80;95.20
45765;DHT22;31474;45.332;10.230;2023-04-27T06:09:36;15.90;95.00
45765;DHT22;31474;45.332;10.230;2023-04-27T06:12:05;16.10;95.10
45765;DHT22;31474;45.332;10.230;2023-04-27T06:14:34;16.20;95.00
45765;DHT22;31474;45.332;10.230;2023-04-27T06:17:01;16.40;94.90
45765;DHT22;31474;45.332;10.230;2023-04-27T06:19:26;16.40;95.00
45765;DHT22;31474;45.332;10.230;2023-04-27T06:21:53;16.40;94.80
45765;DHT22;31474;45.332;10.230;2023-04-27T06:24:19;16.40;95.00
45765;DHT22;31474;45.332;10.230;2023-04-27T06:26:45;16.50;95.30
45765;DHT22;31474;45.332;10.230;2023-04-27T06:29:11;16.70;94.80
45765;DHT22;31474;45.332;10.230;2023-04-27T06:31:36;16.70;94.70
45765;DHT22;31474;45.332;10.230;2023-04-27T06:34:02;16.80;94.20
45765;DHT22;31474;45.332;10.230;2023-04-27T06:36:28;16.70;94.60
45765;DHT22;31474;45.332;10.230;2023-04-27T06:38:54;16.70;94.50
45765;DHT22;31474;45.332;10.230;2023-04-27T06:41:24;16.90;94.80
45765;DHT22;31474;45.332;10.230;2023-04-27T06:43:50;17.10;94.90
45765;DHT22;31474;45.332;10.230;2023-04-27T06:46:16;17.10;94.50
45765;DHT22;31474;45.332;10.230;2023-04-27T06:48:42;17.10;94.80
45765;DHT22;31474;45.332;10.230;2023-04-27T06:51:07;17.10;94.60
45765;DHT22;31474;45.332;10.230;2023-04-27T06:53:33;17.30;94.60
45765;DHT22;31474;45.332;10.230;2023-04-27T06:55:59;17.20;94.70
45765;DHT22;31474;45.332;10.230;2023-04-27T06:58:25;17.40;94.70
45765;DHT22;31474;45.332;10.230;2023-04-27T07:00:51;17.60;94.70
45765;DHT22;31474;45.332;10.230;2023-04-27T07:03:18;17.60;94.50
45765;DHT22;31474;45.332;10.230;2023-04-27T07:05:43;17.80;94.40
45765;DHT22;31474;45.332;10.230;2023-04-27T07:08:09;17.90;94.20
45765;DHT22;31474;45.332;10.230;2023-04-27T07:10:35;17.90;94.00
45765;DHT22;31474;45.332;10.230;2023-04-27T07:13:00;17.90;93.60
45765;DHT22;31474;45.332;10.230;2023-04-27T07:15:26;18.20;94.00
45765;DHT22;31474;45.332;10.230;2023-04-27T07:17:52;18.20;93.60
45765;DHT22;31474;45.332;10.230;2023-04-27T07:20:21;18.20;93.80
45765;DHT22;31474;45.332;10.230;2023-04-27T07:22:47;18.40;93.30
45765;DHT22;31474;45.332;10.230;2023-04-27T07:25:13;18.40;92.70
45765;DHT22;31474;45.332;10.230;2023-04-27T07:27:38;18.60;92.10
45765;DHT22;31474;45.332;10.230;2023-04-27T07:30:06;18.50;91.90
45765;DHT22;31474;45.332;10.230;2023-04-27T07:32:38;18.70;92.80
45765;DHT22;31474;45.332;10.230;2023-04-27T07:35:04;18.70;91.80
45765;DHT22;31474;45.332;10.230;2023-04-27T07:37:30;18.70;91.00
45765;DHT22;31474;45.332;10.230;2023-04-27T07:39:55;18.70;92.10
45765;DHT22;31474;45.332;10.230;2023-04-27T07:42:22;18.90;91.80
45765;DHT22;31474;45.332;10.230;2023-04-27T07:44:47;18.90;91.10
45765;DHT22;31474;45.332;10.230;2023-04-27T07:47:15;18.80;90.40
45765;DHT22;31474;45.332;10.230;2023-04-27T07:49:40;19.00;91.20
45765;DHT22;31474;45.332;10.230;2023-04-27T07:52:06;19.20;90.80
45765;DHT22;31474;45.332;10.230;2023-04-27T07:54:33;19.30;90.00
45765;DHT22;31474;45.332;10.230;2023-04-27T07:56:58;19.40;88.60
45765;DHT22;31474;45.332;10.230;2023-04-27T07:59:28;19.40;90.00
45765;DHT22;31474;45.332;10.230;2023-04-27T08:01:53;19.40;87.80
45765;DHT22;31474;45.332;10.230;2023-04-27T08:04:19;19.20;87.40
45765;DHT22;31474;45.332;10.230;2023-04-27T08:06:45;19.30;87.40
45765;DHT22;31474;45.332;10.230;2023-04-27T08:09:10;19.60;88.80
45765;DHT22;31474;45.332;10.230;2023-04-27T08:11:36;19.70;86.40
45765;DHT22;31474;45.332;10.230;2023-04-27T08:14:02;19.70;85.40
45765;DHT22;31474;45.332;10.230;2023-04-27T08:16:27;19.70;87.90
45765;DHT22;31474;45.332;10.230;2023-04-27T08:18:54;19.60;86.30
45765;DHT22;31474;45.332;10.230;2023-04-27T08:21:19;19.60;83.80
45765;DHT22;31474;45.332;10.230;2023-04-27T08:23:45;19.70;85.80
45765;DHT22;31474;45.332;10.230;2023-04-27T08:26:14;19.40;81.70
45765;DHT22;31474;45.332;10.230;2023-04-27T08:28:40;19.60;80.60
45765;DHT22;31474;45.332;10.230;2023-04-27T08:31:06;19.80;84.10
45765;DHT22;31474;45.332;10.230;2023-04-27T08:33:32;19.70;81.70
45765;DHT22;31474;45.332;10.230;2023-04-27T08:35:57;19.80;83.80
45765;DHT22;31474;45.332;10.230;2023-04-27T08:38:23;19.90;84.30
45765;DHT22;31474;45.332;10.230;2023-04-27T08:40:48;19.90;81.30
45765;DHT22;31474;45.332;10.230;2023-04-27T08:43:14;20.10;83.40
45765;DHT22;31474;45.332;10.230;2023-04-27T08:45:47;20.10;83.90
45765;DHT22;31474;45.332;10.230;2023-04-27T08:48:13;20.00;82.20
45765;DHT22;31474;45.332;10.230;2023-04-27T08:50:42;20.10;83.10
45765;DHT22;31474;45.332;10.230;2023-04-27T08:53:16;20.00;82.20
45765;DHT22;31474;45.332;10.230;2023-04-27T08:55:42;19.90;81.10
45765;DHT22;31474;45.332;10.230;2023-04-27T08:58:08;20.10;83.80
45765;DHT22;31474;45.332;10.230;2023-04-27T09:00:38;20.10;83.60
45765;DHT22;31474;45.332;10.230;2023-04-27T09:03:25;20.20;81.50
45765;DHT22;31474;45.332;10.230;2023-04-27T09:05:51;20.30;82.30
45765;DHT22;31474;45.332;10.230;2023-04-27T09:08:17;20.50;83.40
45765;DHT22;31474;45.332;10.230;2023-04-27T09:10:46;20.40;83.50
45765;DHT22;31474;45.332;10.230;2023-04-27T09:13:12;20.50;82.80
45765;DHT22;31474;45.332;10.230;2023-04-27T09:15:48;20.50;83.80
45765;DHT22;31474;45.332;10.230;2023-04-27T09:18:16;20.40;83.60
45765;DHT22;31474;45.332;10.230;2023-04-27T09:20:49;20.50;84.30
45765;DHT22;31474;45.332;10.230;2023-04-27T09:26:01;20.70;83.90
45765;DHT22;31474;45.332;10.230;2023-04-27T09:28:29;20.70;81.60
45765;DHT22;31474;45.332;10.230;2023-04-27T09:31:00;20.60;82.20
45765;DHT22;31474;45.332;10.230;2023-04-27T09:33:31;20.70;83.60
45765;DHT22;31474;45.332;10.230;2023-04-27T09:36:01;20.80;85.00
45765;DHT22;31474;45.332;10.230;2023-04-27T09:38:28;20.80;83.20
45765;DHT22;31474;45.332;10.230;2023-04-27T09:40:54;20.90;85.40
45765;DHT22;31474;45.332;10.230;2023-04-27T09:43:21;21.00;86.00
45765;DHT22;31474;45.332;10.230;2023-04-27T09:45:48;20.70;85.20
45765;DHT22;31474;45.332;10.230;2023-04-27T09:48:14;20.80;86.00
45765;DHT22;31474;45.332;10.230;2023-04-27T09:50:43;20.80;86.10
45765;DHT22;31474;45.332;10.230;2023-04-27T09:53:18;20.90;86.30
45765;DHT22;31474;45.332;10.230;2023-04-27T10:07:11;20.90;84.50
45765;DHT22;31474;45.332;10.230;2023-04-27T10:09:41;21.00;84.00
45765;DHT22;31474;45.332;10.230;2023-04-27T10:12:27;21.10;84.70
45765;DHT22;31474;45.332;10.230;2023-04-27T10:14:59;21.10;84.40
45765;DHT22;31474;45.332;10.230;2023-04-27T10:17:33;21.00;82.90
45765;DHT22;31474;45.332;10.230;2023-04-27T10:20:06;21.10;82.60
45765;DHT22;31474;45.332;10.230;2023-04-27T10:22:51;21.20;83.40
45765;DHT22;31474;45.332;10.230;2023-04-27T10:25:37;21.10;83.60
45765;DHT22;31474;45.332;10.230;2023-04-27T10:28:03;21.00;82.90
45765;DHT22;31474;45.332;10.230;2023-04-27T10:30:38;21.10;84.00
45765;DHT22;31474;45.332;10.230;2023-04-27T10:33:10;20.90;82.70
45765;DHT22;31474;45.332;10.230;2023-04-27T10:35:44;20.80;82.20
45765;DHT22;31474;45.332;10.230;2023-04-27T10:38:14;20.90;83.50
45765;DHT22;31474;45.332;10.230;2023-04-27T10:40:40;21.00;84.10
45765;DHT22;31474;45.332;10.230;2023-04-27T10:43:13;21.10;83.90
45765;DHT22;31474;45.332;10.230;2023-04-27T10:45:40;21.20;83.00
45765;DHT22;31474;45.332;10.230;2023-04-27T10:48:06;21.10;83.80
45765;DHT22;31474;45.332;10.230;2023-04-27T10:50:32;21.10;86.20
45765;DHT22;31474;45.332;10.230;2023-04-27T10:52:59;21.50;85.10
45765;DHT22;31474;45.332;10.230;2023-04-27T10:55:26;21.60;84.80
45765;DHT22;31474;45.332;10.230;2023-04-27T10:57:54;21.60;83.60
45765;DHT22;31474;45.332;10.230;2023-04-27T11:00:23;21.60;82.30
45765;DHT22;31474;45.332;10.230;2023-04-27T11:02:50;21.20;81.10
45765;DHT22;31474;45.332;10.230;2023-04-27T11:05:18;21.20;83.60
45765;DHT22;31474;45.332;10.230;2023-04-27T11:07:44;21.20;83.50
45765;DHT22;31474;45.332;10.230;2023-04-27T11:10:14;21.30;80.40
45765;DHT22;31474;45.332;10.230;2023-04-27T11:12:41;21.20;81.40
45765;DHT22;31474;45.332;10.230;2023-04-27T11:15:07;21.40;82.70
45765;DHT22;31474;45.332;10.230;2023-04-27T11:17:33;21.40;81.20
45765;DHT22;31474;45.332;10.230;2023-04-27T11:19:59;21.40;79.10
45765;DHT22;31474;45.332;10.230;2023-04-27T11:22:24;21.40;80.60
45765;DHT22;31474;45.332;10.230;2023-04-27T11:24:52;21.50;82.20
45765;DHT22;31474;45.332;10.230;2023-04-27T11:27:18;21.20;77.60
45765;DHT22;31474;45.332;10.230;2023-04-27T11:29:46;21.20;80.20
45765;DHT22;31474;45.332;10.230;2023-04-27T11:32:22;21.30;81.10
45765;DHT22;31474;45.332;10.230;2023-04-27T11:34:49;21.30;80.80
45765;DHT22;31474;45.332;10.230;2023-04-27T11:37:23;21.30;81.40
45765;DHT22;31474;45.332;10.230;2023-04-27T11:39:50;21.30;81.00
45765;DHT22;31474;45.332;10.230;2023-04-27T11:42:17;21.30;80.90
45765;DHT22;31474;45.332;10.230;2023-04-27T11:44:54;21.40;81.50
45765;DHT22;31474;45.332;10.230;2023-04-27T11:47:20;21.50;80.00
45765;DHT22;31474;45.332;10.230;2023-04-27T11:49:58;21.40;80.00
45765;DHT22;31474;45.332;10.230;2023-04-27T11:52:31;21.50;80.70
45765;DHT22;31474;45.332;10.230;2023-04-27T11:54:58;21.50;78.50
45765;DHT22;31474;45.332;10.230;2023-04-27T11:57:29;21.60;81.60
45765;DHT22;31474;45.332;10.230;2023-04-27T11:59:57;21.60;80.30
45765;DHT22;31474;45.332;10.230;2023-04-27T12:02:25;21.50;80.30
45765;DHT22;31474;45.332;10.230;2023-04-27T12:04:51;21.60;80.40
45765;DHT22;31474;45.332;10.230;2023-04-27T12:07:17;21.70;81.30
45765;DHT22;31474;45.332;10.230;2023-04-27T12:09:43;21.80;80.00
45765;DHT22;31474;45.332;10.230;2023-04-27T12:12:09;21.70;80.20
45765;DHT22;31474;45.332;10.230;2023-04-27T12:14:35;21.70;80.10
45765;DHT22;31474;45.332;10.230;2023-04-27T12:17:01;22.00;80.80
45765;DHT22;31474;45.332;10.230;2023-04-27T12:19:26;22.00;80.50
45765;DHT22;31474;45.332;10.230;2023-04-27T12:21:52;22.10;80.00
45765;DHT22;31474;45.332;10.230;2023-04-27T12:24:19;22.00;80.30
45765;DHT22;31474;45.332;10.230;2023-04-27T12:26:45;21.90;80.60
45765;DHT22;31474;45.332;10.230;2023-04-27T12:29:11;21.70;79.90
45765;DHT22;31474;45.332;10.230;2023-04-27T12:31:37;21.80;80.90
45765;DHT22;31474;45.332;10.230;2023-04-27T12:34:03;22.10;81.40
45765;DHT22;31474;45.332;10.230;2023-04-27T12:36:28;22.20;81.10
45765;DHT22;31474;45.332;10.230;2023-04-27T12:38:58;22.00;79.20
45765;DHT22;31474;45.332;10.230;2023-04-27T12:41:24;22.00;79.00
45765;DHT22;31474;45.332;10.230;2023-04-27T12:43:49;21.90;79.40
45765;DHT22;31474;45.332;10.230;2023-04-27T12:46:15;22.10;81.50
45765;DHT22;31474;45.332;10.230;2023-04-27T12:48:43;22.20;79.30
45765;DHT22;31474;45.332;10.230;2023-04-27T12:51:09;22.20;79.90
45765;DHT22;31474;45.332;10.230;2023-04-27T12:53:34;22.10;79.10
45765;DHT22;31474;45.332;10.230;2023-04-27T12:56:01;22.20;79.30
45765;DHT22;31474;45.332;10.230;2023-04-27T12:58:27;22.10;78.40
45765;DHT22;31474;45.332;10.230;2023-04-27T13:00:54;22.20;79.30
45765;DHT22;31474;45.332;10.230;2023-04-27T13:03:22;22.10;79.00
45765;DHT22;31474;45.332;10.230;2023-04-27T13:05:48;22.00;78.00
45765;DHT22;31474;45.332;10.230;2023-04-27T13:08:13;22.10;78.70
45765;DHT22;31474;45.332;10.230;2023-04-27T13:10:39;22.30;81.10
45765;DHT22;31474;45.332;10.230;2023-04-27T13:13:05;22.40;78.50
45765;DHT22;31474;45.332;10.230;2023-04-27T13:15:32;22.40;80.00
45765;DHT22;31474;45.332;10.230;2023-04-27T13:17:58;22.50;79.20
45765;DHT22;31474;45.332;10.230;2023-04-27T13:20:23;22.60;78.60
45765;DHT22;31474;45.332;10.230;2023-04-27T13:22:49;22.60;78.40
45765;DHT22;31474;45.332;10.230;2023-04-27T13:25:15;22.60;78.80
45765;DHT22;31474;45.332;10.230;2023-04-27T13:27:41;22.60;78.50
45765;DHT22;31474;45.332;10.230;2023-04-27T13:30:07;22.70;78.10
45765;DHT22;31474;45.332;10.230;2023-04-27T13:32:33;22.70;78.80
45765;DHT22;31474;45.332;10.230;2023-04-27T13:34:59;22.50;77.20
45765;DHT22;31474;45.332;10.230;2023-04-27T13:37:25;22.50;78.10
45765;DHT22;31474;45.332;10.230;2023-04-27T13:39:51;22.40;77.90
45765;DHT22;31474;45.332;10.230;2023-04-27T13:42:17;22.30;75.50
45765;DHT22;31474;45.332;10.230;2023-04-27T13:44:42;22.40;78.00
45765;DHT22;31474;45.332;10.230;2023-04-27T13:47:08;22.30;78.70
45765;DHT22;31474;45.332;10.230;2023-04-27T13:49:33;22.40;79.90
45765;DHT22;31474;45.332;10.230;2023-04-27T13:51:59;22.50;78.90
45765;DHT22;31474;45.332;10.230;2023-04-27T13:54:25;22.50;78.30
45765;DHT22;31474;45.332;10.230;2023-04-27T13:56:51;22.50;78.50
45765;DHT22;31474;45.332;10.230;2023-04-27T13:59:17;22.40;78.80
45765;DHT22;31474;45.332;10.230;2023-04-27T14:01:42;22.50;78.40
45765;DHT22;31474;45.332;10.230;2023-04-27T14:04:08;22.40;77.10
45765;DHT22;31474;45.332;10.230;2023-04-27T14:06:34;22.40;77.90
45765;DHT22;31474;45.332;10.230;2023-04-27T14:09:00;22.50;79.30
45765;DHT22;31474;45.332;10.230;2023-04-27T14:11:26;22.70;78.70
45765;DHT22;31474;45.332;10.230;2023-04-27T14:13:51;22.80;78.90
45765;DHT22;31474;45.332;10.230;2023-04-27T14:16:17;22.90;78.20
45765;DHT22;31474;45.332;10.230;2023-04-27T14:18:43;22.90;77.40
45765;DHT22;31474;45.332;10.230;2023-04-27T14:21:09;22.90;77.50
45765;DHT22;31474;45.332;10.230;2023-04-27T14:23:35;22.90;77.90
45765;DHT22;31474;45.332;10.230;2023-04-27T14:26:00;22.80;77.50
45765;DHT22;31474;45.332;10.230;2023-04-27T14:28:26;22.70;76.80
45765;DHT22;31474;45.332;10.230;2023-04-27T14:30:52;22.50;77.10
45765;DHT22;31474;45.332;10.230;2023-04-27T14:33:17;22.50;79.10
45765;DHT22;31474;45.332;10.230;2023-04-27T14:35:43;22.60;78.50
45765;DHT22;31474;45.332;10.230;2023-04-27T14:38:09;22.50;79.10
45765;DHT22;31474;45.332;10.230;2023-04-27T14:40:34;22.50;78.80
45765;DHT22;31474;45.332;10.230;2023-04-27T14:43:00;22.50;79.30
45765;DHT22;31474;45.332;10.230;2023-04-27T14:45:26;22.50;78.30
45765;DHT22;31474;45.332;10.230;2023-04-27T14:47:51;22.50;78.30
45765;DHT22;31474;45.332;10.230;2023-04-27T14:50:17;22.60;78.70
45765;DHT22;31474;45.332;10.230;2023-04-27T14:52:43;22.60;76.70
45765;DHT22;31474;45.332;10.230;2023-04-27T14:55:09;22.60;78.30
45765;DHT22;31474;45.332;10.230;2023-04-27T14:57:35;22.50;77.50
45765;DHT22;31474;45.332;10.230;2023-04-27T15:00:02;22.50;78.50
45765;DHT22;31474;45.332;10.230;2023-04-27T15:02:36;22.50;77.40
45765;DHT22;31474;45.332;10.230;2023-04-27T15:05:02;22.40;77.80
45765;DHT22;31474;45.332;10.230;2023-04-27T15:07:28;22.50;78.20
45765;DHT22;31474;45.332;10.230;2023-04-27T15:09:53;22.50;78.00
45765;DHT22;31474;45.332;10.230;2023-04-27T15:12:19;22.40;77.60
45765;DHT22;31474;45.332;10.230;2023-04-27T15:14:45;22.40;77.00
45765;DHT22;31474;45.332;10.230;2023-04-27T15:17:12;22.50;77.90
45765;DHT22;31474;45.332;10.230;2023-04-27T15:19:38;22.40;76.60
45765;DHT22;31474;45.332;10.230;2023-04-27T15:22:04;22.40;77.80
45765;DHT22;31474;45.332;10.230;2023-04-27T15:24:29;22.30;77.90
45765;DHT22;31474;45.332;10.230;2023-04-27T15:26:55;22.30;79.00